sensor_id;sensor_type;location;lat;lon;timestamp;P1;durP1;ratioP1;P2;durP2;ratioP2
51288;SDS011;37372;52.294;5.152;2024-02-23T00:02:12;13.97;;;2.47;;
51288;SDS011;37372;52.294;5.152;2024-02-23T00:04:38;13.05;;;1.73;;
51288;SDS011;37372;52.294;5.152;2024-02-23T00:07:04;12.87;;;2.00;;
51288;SDS011;37372;52.294;5.152;2024-02-23T00:09:29;11.10;;;2.10;;
51288;SDS011;37372;52.294;5.152;2024-02-23T00:11:54;11.98;;;2.00;;
51288;SDS011;37372;52.294;5.152;2024-02-23T00:14:20;11.23;;;2.13;;
51288;SDS011;37372;52.294;5.152;2024-02-23T00:16:45;12.80;;;1.70;;
51288;SDS011;37372;52.294;5.152;2024-02-23T00:19:13;10.10;;;1.90;;
51288;SDS011;37372;52.294;5.152;2024-02-23T00:21:38;19.88;;;2.10;;
51288;SDS011;37372;52.294;5.152;2024-02-23T00:24:07;11.30;;;1.80;;
51288;SDS011;37372;52.294;5.152;2024-02-23T00:26:33;9.50;;;2.10;;
51288;SDS011;37372;52.294;5.152;2024-02-23T00:28:58;10.33;;;1.93;;
51288;SDS011;37372;52.294;5.152;2024-02-23T00:31:24;9.07;;;1.70;;
51288;SDS011;37372;52.294;5.152;2024-02-23T00:33:50;8.65;;;1.75;;
51288;SDS011;37372;52.294;5.152;2024-02-23T00:36:15;7.40;;;1.63;;
51288;SDS011;37372;52.294;5.152;2024-02-23T00:38:41;10.53;;;1.50;;
51288;SDS011;37372;52.294;5.152;2024-02-23T00:41:07;19.25;;;2.53;;
51288;SDS011;37372;52.294;5.152;2024-02-23T00:43:38;11.17;;;2.03;;
51288;SDS011;37372;52.294;5.152;2024-02-23T00:46:05;8.35;;;2.00;;
51288;SDS011;37372;52.294;5.152;2024-02-23T00:48:32;15.68;;;2.00;;
51288;SDS011;37372;52.294;5.152;2024-02-23T00:50:57;15.77;;;2.03;;
51288;SDS011;37372;52.294;5.152;2024-02-23T00:53:23;6.40;;;1.80;;
51288;SDS011;37372;52.294;5.152;2024-02-23T00:55:49;12.50;;;2.00;;
51288;SDS011;37372;52.294;5.152;2024-02-23T00:58:14;12.17;;;1.90;;
51288;SDS011;37372;52.294;5.152;2024-02-23T01:00:40;12.25;;;1.73;;
51288;SDS011;37372;52.294;5.152;2024-02-23T01:03:07;9.70;;;1.50;;
51288;SDS011;37372;52.294;5.152;2024-02-23T01:05:32;9.07;;;1.77;;
51288;SDS011;37372;52.294;5.152;2024-02-23T01:07:58;10.65;;;1.70;;
51288;SDS011;37372;52.294;5.152;2024-02-23T01:10:27;10.63;;;1.40;;
51288;SDS011;37372;52.294;5.152;2024-02-23T01:12:52;16.85;;;2.15;;
51288;SDS011;37372;52.294;5.152;2024-02-23T01:15:17;12.00;;;1.50;;
51288;SDS011;37372;52.294;5.152;2024-02-23T01:17:43;11.07;;;1.52;;
51288;SDS011;37372;52.294;5.152;2024-02-23T01:20:18;10.20;;;1.40;;
51288;SDS011;37372;52.294;5.152;2024-02-23T01:22:43;9.07;;;1.65;;
51288;SDS011;37372;52.294;5.152;2024-02-23T01:25:09;8.27;;;1.67;;
51288;SDS011;37372;52.294;5.152;2024-02-23T01:27:34;8.25;;;1.50;;
51288;SDS011;37372;52.294;5.152;2024-02-23T01:30:00;10.57;;;1.40;;
51288;SDS011;37372;52.294;5.152;2024-02-23T01:32:25;16.33;;;1.75;;
51288;SDS011;37372;52.294;5.152;2024-02-23T01:34:51;12.77;;;1.67;;
51288;SDS011;37372;52.294;5.152;2024-02-23T01:37:22;11.55;;;1.85;;
51288;SDS011;37372;52.294;5.152;2024-02-23T01:39:47;12.03;;;1.70;;
51288;SDS011;37372;52.294;5.152;2024-02-23T01:42:12;8.63;;;1.40;;
51288;SDS011;37372;52.294;5.152;2024-02-23T01:44:41;7.20;;;1.40;;
51288;SDS011;37372;52.294;5.152;2024-02-23T01:47:06;8.20;;;1.70;;
51288;SDS011;37372;52.294;5.152;2024-02-23T01:49:32;11.20;;;1.67;;
51288;SDS011;37372;52.294;5.152;2024-02-23T01:51:59;11.15;;;1.55;;
51288;SDS011;37372;52.294;5.152;2024-02-23T01:54:26;9.68;;;1.40;;
51288;SDS011;37372;52.294;5.152;2024-02-23T01:56:53;9.85;;;1.70;;
51288;SDS011;37372;52.294;5.152;2024-02-23T01:59:25;7.90;;;1.53;;
51288;SDS011;37372;52.294;5.152;2024-02-23T02:01:54;10.00;;;1.40;;
51288;SDS011;37372;52.294;5.152;2024-02-23T02:04:21;11.93;;;1.58;;
51288;SDS011;37372;52.294;5.152;2024-02-23T02:06:47;7.95;;;1.30;;
51288;SDS011;37372;52.294;5.152;2024-02-23T02:09:13;12.05;;;1.23;;
51288;SDS011;37372;52.294;5.152;2024-02-23T02:11:49;4.70;;;1.50;;
51288;SDS011;37372;52.294;5.152;2024-02-23T02:14:14;8.50;;;1.48;;
51288;SDS011;37372;52.294;5.152;2024-02-23T02:16:40;5.75;;;1.25;;
51288;SDS011;37372;52.294;5.152;2024-02-23T02:19:06;8.60;;;1.37;;
51288;SDS011;37372;52.294;5.152;2024-02-23T02:21:32;8.20;;;1.42;;
51288;SDS011;37372;52.294;5.152;2024-02-23T02:23:58;9.00;;;1.30;;
51288;SDS011;37372;52.294;5.152;2024-02-23T02:26:23;7.07;;;1.40;;
51288;SDS011;37372;52.294;5.152;2024-02-23T02:28:51;9.57;;;1.53;;
51288;SDS011;37372;52.294;5.152;2024-02-23T02:31:20;6.75;;;1.63;;
51288;SDS011;37372;52.294;5.152;2024-02-23T02:33:45;4.55;;;1.15;;
51288;SDS011;37372;52.294;5.152;2024-02-23T02:36:11;8.77;;;1.20;;
51288;SDS011;37372;52.294;5.152;2024-02-23T02:38:36;6.87;;;1.57;;
51288;SDS011;37372;52.294;5.152;2024-02-23T02:41:02;14.35;;;1.30;;
51288;SDS011;37372;52.294;5.152;2024-02-23T02:43:29;8.50;;;1.23;;
51288;SDS011;37372;52.294;5.152;2024-02-23T02:45:55;5.27;;;0.90;;
51288;SDS011;37372;52.294;5.152;2024-02-23T02:48:22;6.25;;;1.27;;
51288;SDS011;37372;52.294;5.152;2024-02-23T02:50:47;13.63;;;1.53;;
51288;SDS011;37372;52.294;5.152;2024-02-23T02:53:16;9.03;;;1.40;;
51288;SDS011;37372;52.294;5.152;2024-02-23T02:55:41;7.82;;;1.48;;
51288;SDS011;37372;52.294;5.152;2024-02-23T02:58:08;11.30;;;2.37;;
51288;SDS011;37372;52.294;5.152;2024-02-23T03:00:33;5.95;;;1.38;;
51288;SDS011;37372;52.294;5.152;2024-02-23T03:02:59;8.83;;;1.50;;
51288;SDS011;37372;52.294;5.152;2024-02-23T03:05:25;8.95;;;1.45;;
51288;SDS011;37372;52.294;5.152;2024-02-23T03:07:50;5.23;;;1.40;;
51288;SDS011;37372;52.294;5.152;2024-02-23T03:10:16;9.27;;;1.40;;
51288;SDS011;37372;52.294;5.152;2024-02-23T03:12:42;7.72;;;1.50;;
51288;SDS011;37372;52.294;5.152;2024-02-23T03:15:08;10.73;;;1.70;;
51288;SDS011;37372;52.294;5.152;2024-02-23T03:17:35;10.90;;;1.70;;
51288;SDS011;37372;52.294;5.152;2024-02-23T03:20:00;9.15;;;1.30;;
51288;SDS011;37372;52.294;5.152;2024-02-23T03:22:26;8.80;;;1.37;;
51288;SDS011;37372;52.294;5.152;2024-02-23T03:24:51;11.90;;;1.73;;
51288;SDS011;37372;52.294;5.152;2024-02-23T03:27:17;11.18;;;1.63;;
51288;SDS011;37372;52.294;5.152;2024-02-23T03:29:42;10.27;;;1.53;;
51288;SDS011;37372;52.294;5.152;2024-02-23T03:32:08;10.18;;;1.23;;
51288;SDS011;37372;52.294;5.152;2024-02-23T03:34:34;6.47;;;1.30;;
51288;SDS011;37372;52.294;5.152;2024-02-23T03:37:01;8.23;;;1.42;;
51288;SDS011;37372;52.294;5.152;2024-02-23T03:39:28;7.40;;;1.35;;
51288;SDS011;37372;52.294;5.152;2024-02-23T03:41:53;8.73;;;1.60;;
51288;SDS011;37372;52.294;5.152;2024-02-23T03:44:20;8.23;;;1.20;;
51288;SDS011;37372;52.294;5.152;2024-02-23T03:46:45;10.73;;;1.23;;
51288;SDS011;37372;52.294;5.152;2024-02-23T03:49:10;9.07;;;1.67;;
51288;SDS011;37372;52.294;5.152;2024-02-23T03:51:37;15.10;;;1.97;;
51288;SDS011;37372;52.294;5.152;2024-02-23T03:54:05;14.98;;;1.90;;
51288;SDS011;37372;52.294;5.152;2024-02-23T03:56:37;7.75;;;1.55;;
51288;SDS011;37372;52.294;5.152;2024-02-23T03:59:04;8.43;;;1.50;;
51288;SDS011;37372;52.294;5.152;2024-02-23T04:01:30;10.20;;;1.67;;
51288;SDS011;37372;52.294;5.152;2024-02-23T04:03:55;5.90;;;1.50;;
51288;SDS011;37372;52.294;5.152;2024-02-23T04:06:24;10.07;;;1.30;;
51288;SDS011;37372;52.294;5.152;2024-02-23T04:08:49;11.57;;;1.60;;
51288;SDS011;37372;52.294;5.152;2024-02-23T04:11:14;7.53;;;1.77;;
51288;SDS011;37372;52.294;5.152;2024-02-23T04:13:40;7.23;;;1.60;;
51288;SDS011;37372;52.294;5.152;2024-02-23T04:16:06;7.90;;;2.00;;
51288;SDS011;37372;52.294;5.152;2024-02-23T04:18:31;4.83;;;1.43;;
51288;SDS011;37372;52.294;5.152;2024-02-23T04:20:57;8.03;;;1.60;;
51288;SDS011;37372;52.294;5.152;2024-02-23T04:23:22;7.43;;;1.93;;
51288;SDS011;37372;52.294;5.152;2024-02-23T04:25:47;8.07;;;1.75;;
51288;SDS011;37372;52.294;5.152;2024-02-23T04:28:13;9.83;;;1.97;;
51288;SDS011;37372;52.294;5.152;2024-02-23T04:30:38;8.80;;;2.07;;
51288;SDS011;37372;52.294;5.152;2024-02-23T04:33:07;6.78;;;1.75;;
51288;SDS011;37372;52.294;5.152;2024-02-23T04:35:32;6.37;;;1.87;;
51288;SDS011;37372;52.294;5.152;2024-02-23T04:37:57;10.73;;;1.73;;
51288;SDS011;37372;52.294;5.152;2024-02-23T04:40:22;5.97;;;1.43;;
51288;SDS011;37372;52.294;5.152;2024-02-23T04:42:48;9.70;;;1.97;;
51288;SDS011;37372;52.294;5.152;2024-02-23T04:45:13;10.90;;;1.90;;
51288;SDS011;37372;52.294;5.152;2024-02-23T04:47:39;9.20;;;1.70;;
51288;SDS011;37372;52.294;5.152;2024-02-23T04:50:05;4.93;;;1.42;;
51288;SDS011;37372;52.294;5.152;2024-02-23T04:52:32;8.45;;;1.90;;
51288;SDS011;37372;52.294;5.152;2024-02-23T04:54:58;8.80;;;1.50;;
51288;SDS011;37372;52.294;5.152;2024-02-23T04:57:26;10.93;;;1.73;;
51288;SDS011;37372;52.294;5.152;2024-02-23T04:59:52;8.23;;;2.00;;
51288;SDS011;37372;52.294;5.152;2024-02-23T05:02:17;7.57;;;1.60;;
51288;SDS011;37372;52.294;5.152;2024-02-23T05:04:46;9.37;;;2.00;;
51288;SDS011;37372;52.294;5.152;2024-02-23T05:07:12;7.72;;;1.90;;
51288;SDS011;37372;52.294;5.152;2024-02-23T05:09:38;7.53;;;1.40;;
51288;SDS011;37372;52.294;5.152;2024-02-23T05:12:05;5.93;;;1.98;;
51288;SDS011;37372;52.294;5.152;2024-02-23T05:14:32;8.27;;;2.45;;
51288;SDS011;37372;52.294;5.152;2024-02-23T05:16:57;9.80;;;1.97;;
51288;SDS011;37372;52.294;5.152;2024-02-23T05:19:23;7.47;;;2.10;;
51288;SDS011;37372;52.294;5.152;2024-02-23T05:21:48;10.07;;;2.33;;
51288;SDS011;37372;52.294;5.152;2024-02-23T05:24:14;8.37;;;2.10;;
51288;SDS011;37372;52.294;5.152;2024-02-23T05:26:42;6.10;;;2.40;;
51288;SDS011;37372;52.294;5.152;2024-02-23T05:29:09;8.80;;;2.28;;
51288;SDS011;37372;52.294;5.152;2024-02-23T05:31:45;7.30;;;2.03;;
51288;SDS011;37372;52.294;5.152;2024-02-23T05:34:12;8.20;;;2.40;;
51288;SDS011;37372;52.294;5.152;2024-02-23T05:36:38;10.73;;;2.55;;
51288;SDS011;37372;52.294;5.152;2024-02-23T05:39:03;10.43;;;2.50;;
51288;SDS011;37372;52.294;5.152;2024-02-23T05:41:28;10.33;;;2.93;;
51288;SDS011;37372;52.294;5.152;2024-02-23T05:43:54;10.90;;;2.67;;
51288;SDS011;37372;52.294;5.152;2024-02-23T05:46:19;8.53;;;2.27;;
51288;SDS011;37372;52.294;5.152;2024-02-23T05:48:46;8.35;;;2.70;;
51288;SDS011;37372;52.294;5.152;2024-02-23T05:51:20;7.40;;;2.42;;
51288;SDS011;37372;52.294;5.152;2024-02-23T05:53:46;12.87;;;2.70;;
51288;SDS011;37372;52.294;5.152;2024-02-23T05:56:12;8.85;;;2.40;;
51288;SDS011;37372;52.294;5.152;2024-02-23T05:58:41;6.57;;;2.53;;
51288;SDS011;37372;52.294;5.152;2024-02-23T06:01:07;10.47;;;2.80;;
51288;SDS011;37372;52.294;5.152;2024-02-23T06:03:32;9.47;;;3.30;;
51288;SDS011;37372;52.294;5.152;2024-02-23T06:05:58;7.90;;;3.10;;
51288;SDS011;37372;52.294;5.152;2024-02-23T06:08:23;9.48;;;3.38;;
51288;SDS011;37372;52.294;5.152;2024-02-23T06:10:50;8.18;;;3.55;;
51288;SDS011;37372;52.294;5.152;2024-02-23T06:13:15;11.37;;;3.63;;
51288;SDS011;37372;52.294;5.152;2024-02-23T06:15:41;10.00;;;3.77;;
51288;SDS011;37372;52.294;5.152;2024-02-23T06:18:07;8.10;;;3.55;;
51288;SDS011;37372;52.294;5.152;2024-02-23T06:20:32;8.87;;;4.00;;
51288;SDS011;37372;52.294;5.152;2024-02-23T06:22:58;10.93;;;3.80;;
51288;SDS011;37372;52.294;5.152;2024-02-23T06:25:23;9.33;;;4.27;;
51288;SDS011;37372;52.294;5.152;2024-02-23T06:27:51;13.88;;;3.92;;
51288;SDS011;37372;52.294;5.152;2024-02-23T06:30:20;9.00;;;3.95;;
51288;SDS011;37372;52.294;5.152;2024-02-23T06:32:46;9.90;;;3.90;;
51288;SDS011;37372;52.294;5.152;2024-02-23T06:35:11;8.63;;;3.87;;
51288;SDS011;37372;52.294;5.152;2024-02-23T06:37:37;8.47;;;3.87;;
51288;SDS011;37372;52.294;5.152;2024-02-23T06:40:02;7.50;;;3.40;;
51288;SDS011;37372;52.294;5.152;2024-02-23T06:42:29;8.27;;;3.30;;
51288;SDS011;37372;52.294;5.152;2024-02-23T06:44:55;7.45;;;3.45;;
51288;SDS011;37372;52.294;5.152;2024-02-23T06:47:20;9.20;;;3.30;;
51288;SDS011;37372;52.294;5.152;2024-02-23T06:49:46;10.00;;;3.20;;
51288;SDS011;37372;52.294;5.152;2024-02-23T06:52:11;9.23;;;3.23;;
51288;SDS011;37372;52.294;5.152;2024-02-23T06:54:37;7.20;;;2.73;;
51288;SDS011;37372;52.294;5.152;2024-02-23T06:57:02;9.37;;;3.17;;
51288;SDS011;37372;52.294;5.152;2024-02-23T06:59:28;8.73;;;3.50;;
51288;SDS011;37372;52.294;5.152;2024-02-23T07:01:56;6.93;;;3.00;;
51288;SDS011;37372;52.294;5.152;2024-02-23T07:04:22;5.57;;;2.88;;
51288;SDS011;37372;52.294;5.152;2024-02-23T07:06:50;9.07;;;3.30;;
51288;SDS011;37372;52.294;5.152;2024-02-23T07:09:15;7.28;;;3.08;;
51288;SDS011;37372;52.294;5.152;2024-02-23T07:11:40;6.07;;;3.00;;
51288;SDS011;37372;52.294;5.152;2024-02-23T07:14:08;8.43;;;3.00;;
51288;SDS011;37372;52.294;5.152;2024-02-23T07:16:37;6.93;;;2.93;;
51288;SDS011;37372;52.294;5.152;2024-02-23T07:19:04;7.22;;;3.25;;
51288;SDS011;37372;52.294;5.152;2024-02-23T07:21:30;11.27;;;3.10;;
51288;SDS011;37372;52.294;5.152;2024-02-23T07:23:58;7.17;;;3.00;;
51288;SDS011;37372;52.294;5.152;2024-02-23T07:26:30;7.78;;;3.38;;
51288;SDS011;37372;52.294;5.152;2024-02-23T07:28:56;10.00;;;3.42;;
51288;SDS011;37372;52.294;5.152;2024-02-23T07:31:22;11.52;;;3.05;;
51288;SDS011;37372;52.294;5.152;2024-02-23T07:33:47;5.87;;;2.70;;
51288;SDS011;37372;52.294;5.152;2024-02-23T07:36:14;7.03;;;2.88;;
51288;SDS011;37372;52.294;5.152;2024-02-23T07:38:41;10.82;;;2.92;;
51288;SDS011;37372;52.294;5.152;2024-02-23T07:41:08;6.00;;;2.57;;
51288;SDS011;37372;52.294;5.152;2024-02-23T07:43:33;7.82;;;2.63;;
51288;SDS011;37372;52.294;5.152;2024-02-23T07:45:59;7.17;;;2.30;;
51288;SDS011;37372;52.294;5.152;2024-02-23T07:48:24;10.70;;;2.40;;
51288;SDS011;37372;52.294;5.152;2024-02-23T07:50:50;6.80;;;2.30;;
51288;SDS011;37372;52.294;5.152;2024-02-23T07:53:15;7.27;;;2.77;;
51288;SDS011;37372;52.294;5.152;2024-02-23T07:55:41;6.77;;;2.10;;
51288;SDS011;37372;52.294;5.152;2024-02-23T07:58:06;6.67;;;1.90;;
51288;SDS011;37372;52.294;5.152;2024-02-23T08:00:34;6.65;;;1.92;;
51288;SDS011;37372;52.294;5.152;2024-02-23T08:03:02;7.22;;;2.20;;
51288;SDS011;37372;52.294;5.152;2024-02-23T08:05:28;4.27;;;1.60;;
51288;SDS011;37372;52.294;5.152;2024-02-23T08:07:54;10.67;;;1.97;;
51288;SDS011;37372;52.294;5.152;2024-02-23T08:10:22;4.60;;;1.57;;
51288;SDS011;37372;52.294;5.152;2024-02-23T08:12:48;6.72;;;1.80;;
51288;SDS011;37372;52.294;5.152;2024-02-23T08:15:13;5.43;;;1.92;;
51288;SDS011;37372;52.294;5.152;2024-02-23T08:17:39;5.07;;;1.70;;
51288;SDS011;37372;52.294;5.152;2024-02-23T08:20:05;6.40;;;1.67;;
51288;SDS011;37372;52.294;5.152;2024-02-23T08:22:30;5.80;;;1.80;;
51288;SDS011;37372;52.294;5.152;2024-02-23T08:24:56;5.20;;;1.60;;
51288;SDS011;37372;52.294;5.152;2024-02-23T08:27:22;5.88;;;1.42;;
51288;SDS011;37372;52.294;5.152;2024-02-23T08:29:47;6.70;;;1.87;;
51288;SDS011;37372;52.294;5.152;2024-02-23T08:32:13;3.10;;;1.40;;
51288;SDS011;37372;52.294;5.152;2024-02-23T08:34:39;5.53;;;1.70;;
51288;SDS011;37372;52.294;5.152;2024-02-23T08:37:05;4.67;;;1.60;;
51288;SDS011;37372;52.294;5.152;2024-02-23T08:39:37;9.45;;;1.80;;
51288;SDS011;37372;52.294;5.152;2024-02-23T08:42:02;8.23;;;1.60;;
51288;SDS011;37372;52.294;5.152;2024-02-23T08:44:28;7.13;;;1.70;;
51288;SDS011;37372;52.294;5.152;2024-02-23T08:46:54;5.17;;;1.70;;
51288;SDS011;37372;52.294;5.152;2024-02-23T08:49:19;10.00;;;2.00;;
51288;SDS011;37372;52.294;5.152;2024-02-23T08:51:44;6.43;;;1.87;;
51288;SDS011;37372;52.294;5.152;2024-02-23T08:54:10;4.33;;;1.50;;
51288;SDS011;37372;52.294;5.152;2024-02-23T08:56:39;10.17;;;2.07;;
51288;SDS011;37372;52.294;5.152;2024-02-23T08:59:16;5.47;;;1.75;;
51288;SDS011;37372;52.294;5.152;2024-02-23T09:01:41;7.00;;;2.10;;
51288;SDS011;37372;52.294;5.152;2024-02-23T09:04:09;6.43;;;2.10;;
51288;SDS011;37372;52.294;5.152;2024-02-23T09:06:37;8.07;;;2.27;;
51288;SDS011;37372;52.294;5.152;2024-02-23T09:09:02;6.45;;;2.00;;
51288;SDS011;37372;52.294;5.152;2024-02-23T09:11:28;4.90;;;1.63;;
51288;SDS011;37372;52.294;5.152;2024-02-23T09:13:54;8.40;;;2.00;;
51288;SDS011;37372;52.294;5.152;2024-02-23T09:16:20;7.13;;;2.13;;
51288;SDS011;37372;52.294;5.152;2024-02-23T09:18:48;6.03;;;1.90;;
51288;SDS011;37372;52.294;5.152;2024-02-23T09:21:13;5.68;;;2.25;;
51288;SDS011;37372;52.294;5.152;2024-02-23T09:23:40;6.93;;;2.00;;
51288;SDS011;37372;52.294;5.152;2024-02-23T09:26:09;7.53;;;1.93;;
51288;SDS011;37372;52.294;5.152;2024-02-23T09:28:38;3.88;;;1.88;;
51288;SDS011;37372;52.294;5.152;2024-02-23T09:31:05;6.93;;;2.00;;
51288;SDS011;37372;52.294;5.152;2024-02-23T09:33:31;4.38;;;1.83;;
51288;SDS011;37372;52.294;5.152;2024-02-23T09:35:57;9.90;;;2.37;;
51288;SDS011;37372;52.294;5.152;2024-02-23T09:38:23;8.55;;;1.98;;
51288;SDS011;37372;52.294;5.152;2024-02-23T09:40:50;8.60;;;2.20;;
51288;SDS011;37372;52.294;5.152;2024-02-23T09:43:16;9.43;;;2.63;;
51288;SDS011;37372;52.294;5.152;2024-02-23T09:45:42;7.07;;;2.20;;
51288;SDS011;37372;52.294;5.152;2024-02-23T09:48:10;7.28;;;2.15;;
51288;SDS011;37372;52.294;5.152;2024-02-23T09:50:36;9.70;;;2.38;;
51288;SDS011;37372;52.294;5.152;2024-02-23T09:53:04;5.70;;;2.77;;
51288;SDS011;37372;52.294;5.152;2024-02-23T09:55:34;10.30;;;2.50;;
51288;SDS011;37372;52.294;5.152;2024-02-23T09:57:59;5.05;;;2.28;;
51288;SDS011;37372;52.294;5.152;2024-02-23T10:00:25;5.07;;;2.03;;
51288;SDS011;37372;52.294;5.152;2024-02-23T10:02:54;7.90;;;2.28;;
51288;SDS011;37372;52.294;5.152;2024-02-23T10:05:22;7.68;;;1.95;;
51288;SDS011;37372;52.294;5.152;2024-02-23T10:07:51;6.03;;;2.53;;
51288;SDS011;37372;52.294;5.152;2024-02-23T10:10:24;6.22;;;2.10;;
51288;SDS011;37372;52.294;5.152;2024-02-23T10:12:51;8.10;;;1.93;;
51288;SDS011;37372;52.294;5.152;2024-02-23T10:15:17;8.68;;;2.33;;
51288;SDS011;37372;52.294;5.152;2024-02-23T10:17:42;10.17;;;2.80;;
51288;SDS011;37372;52.294;5.152;2024-02-23T10:20:12;5.50;;;2.13;;
51288;SDS011;37372;52.294;5.152;2024-02-23T10:22:37;5.30;;;2.17;;
51288;SDS011;37372;52.294;5.152;2024-02-23T10:25:03;7.15;;;2.05;;
51288;SDS011;37372;52.294;5.152;2024-02-23T10:27:29;7.72;;;1.92;;
51288;SDS011;37372;52.294;5.152;2024-02-23T10:29:55;8.83;;;1.93;;
51288;SDS011;37372;52.294;5.152;2024-02-23T10:32:20;5.63;;;2.07;;
51288;SDS011;37372;52.294;5.152;2024-02-23T10:34:52;6.00;;;2.15;;
51288;SDS011;37372;52.294;5.152;2024-02-23T10:37:21;5.53;;;1.92;;
51288;SDS011;37372;52.294;5.152;2024-02-23T10:39:48;8.97;;;1.80;;
51288;SDS011;37372;52.294;5.152;2024-02-23T10:42:19;8.00;;;2.17;;
51288;SDS011;37372;52.294;5.152;2024-02-23T10:44:50;3.47;;;1.80;;
51288;SDS011;37372;52.294;5.152;2024-02-23T10:47:16;5.65;;;2.05;;
51288;SDS011;37372;52.294;5.152;2024-02-23T10:49:43;5.65;;;2.20;;
51288;SDS011;37372;52.294;5.152;2024-02-23T10:52:10;3.43;;;1.87;;
51288;SDS011;37372;52.294;5.152;2024-02-23T10:54:40;5.00;;;1.98;;
51288;SDS011;37372;52.294;5.152;2024-02-23T10:57:07;7.32;;;2.10;;
51288;SDS011;37372;52.294;5.152;2024-02-23T10:59:32;3.42;;;1.67;;
51288;SDS011;37372;52.294;5.152;2024-02-23T11:02:01;6.47;;;2.03;;
51288;SDS011;37372;52.294;5.152;2024-02-23T11:04:28;4.90;;;1.75;;
51288;SDS011;37372;52.294;5.152;2024-02-23T11:06:57;3.65;;;2.03;;
51288;SDS011;37372;52.294;5.152;2024-02-23T11:09:23;4.22;;;2.20;;
51288;SDS011;37372;52.294;5.152;2024-02-23T11:11:57;6.93;;;2.42;;
51288;SDS011;37372;52.294;5.152;2024-02-23T11:14:32;5.97;;;2.00;;
51288;SDS011;37372;52.294;5.152;2024-02-23T11:17:00;4.65;;;2.40;;
51288;SDS011;37372;52.294;5.152;2024-02-23T11:19:33;6.57;;;1.83;;
51288;SDS011;37372;52.294;5.152;2024-02-23T11:22:02;7.47;;;2.22;;
51288;SDS011;37372;52.294;5.152;2024-02-23T11:24:29;7.13;;;2.22;;
51288;SDS011;37372;52.294;5.152;2024-02-23T11:26:56;9.93;;;2.23;;
51288;SDS011;37372;52.294;5.152;2024-02-23T11:29:29;6.07;;;2.00;;
51288;SDS011;37372;52.294;5.152;2024-02-23T11:31:55;3.67;;;1.98;;
51288;SDS011;37372;52.294;5.152;2024-02-23T11:34:26;6.55;;;1.92;;
51288;SDS011;37372;52.294;5.152;2024-02-23T11:36:58;7.93;;;2.20;;
51288;SDS011;37372;52.294;5.152;2024-02-23T11:39:34;7.07;;;2.30;;
51288;SDS011;37372;52.294;5.152;2024-02-23T11:42:02;6.15;;;1.90;;
51288;SDS011;37372;52.294;5.152;2024-02-23T11:44:32;4.85;;;1.85;;
51288;SDS011;37372;52.294;5.152;2024-02-23T11:46:58;4.93;;;2.07;;
51288;SDS011;37372;52.294;5.152;2024-02-23T11:49:31;4.05;;;1.98;;
51288;SDS011;37372;52.294;5.152;2024-02-23T11:51:59;5.82;;;2.10;;
51288;SDS011;37372;52.294;5.152;2024-02-23T11:54:25;6.30;;;2.00;;
51288;SDS011;37372;52.294;5.152;2024-02-23T11:56:51;7.70;;;2.22;;
51288;SDS011;37372;52.294;5.152;2024-02-23T11:59:18;6.05;;;2.47;;
51288;SDS011;37372;52.294;5.152;2024-02-23T12:01:45;9.10;;;2.97;;
51288;SDS011;37372;52.294;5.152;2024-02-23T12:04:12;4.77;;;2.23;;
51288;SDS011;37372;52.294;5.152;2024-02-23T12:06:39;5.82;;;2.00;;
51288;SDS011;37372;52.294;5.152;2024-02-23T12:09:09;4.65;;;2.00;;
51288;SDS011;37372;52.294;5.152;2024-02-23T12:11:38;6.47;;;2.00;;
51288;SDS011;37372;52.294;5.152;2024-02-23T12:14:04;5.47;;;1.92;;
51288;SDS011;37372;52.294;5.152;2024-02-23T12:16:34;7.50;;;1.93;;
51288;SDS011;37372;52.294;5.152;2024-02-23T12:19:02;5.95;;;2.03;;
51288;SDS011;37372;52.294;5.152;2024-02-23T12:21:28;6.75;;;2.00;;
51288;SDS011;37372;52.294;5.152;2024-02-23T12:23:54;5.50;;;1.50;;
51288;SDS011;37372;52.294;5.152;2024-02-23T12:26:19;3.42;;;1.50;;
51288;SDS011;37372;52.294;5.152;2024-02-23T12:28:47;6.50;;;2.03;;
51288;SDS011;37372;52.294;5.152;2024-02-23T12:31:13;7.47;;;1.70;;
51288;SDS011;37372;52.294;5.152;2024-02-23T12:33:39;3.70;;;1.10;;
51288;SDS011;37372;52.294;5.152;2024-02-23T12:36:05;6.65;;;1.50;;
51288;SDS011;37372;52.294;5.152;2024-02-23T12:38:32;6.30;;;1.50;;
51288;SDS011;37372;52.294;5.152;2024-02-23T12:40:58;6.00;;;1.20;;
51288;SDS011;37372;52.294;5.152;2024-02-23T12:43:25;5.10;;;1.37;;
51288;SDS011;37372;52.294;5.152;2024-02-23T12:45:51;4.28;;;1.35;;
51288;SDS011;37372;52.294;5.152;2024-02-23T12:48:19;3.55;;;1.50;;
51288;SDS011;37372;52.294;5.152;2024-02-23T12:50:46;5.63;;;1.50;;
51288;SDS011;37372;52.294;5.152;2024-02-23T12:56:06;5.00;;;1.25;;
51288;SDS011;37372;52.294;5.152;2024-02-23T12:58:40;4.22;;;1.70;;
51288;SDS011;37372;52.294;5.152;2024-02-23T13:01:06;4.20;;;1.30;;
51288;SDS011;37372;52.294;5.152;2024-02-23T13:03:33;4.90;;;1.47;;
51288;SDS011;37372;52.294;5.152;2024-02-23T13:05:59;4.75;;;1.48;;
51288;SDS011;37372;52.294;5.152;2024-02-23T13:08:25;4.47;;;1.40;;
51288;SDS011;37372;52.294;5.152;2024-02-23T13:10:51;7.40;;;1.37;;
51288;SDS011;37372;52.294;5.152;2024-02-23T13:13:18;6.73;;;1.30;;
51288;SDS011;37372;52.294;5.152;2024-02-23T13:15:45;6.93;;;1.30;;
51288;SDS011;37372;52.294;5.152;2024-02-23T13:18:11;6.68;;;1.25;;
51288;SDS011;37372;52.294;5.152;2024-02-23T13:20:37;3.13;;;1.03;;
51288;SDS011;37372;52.294;5.152;2024-02-23T13:23:07;5.60;;;1.40;;
51288;SDS011;37372;52.294;5.152;2024-02-23T13:25:33;3.38;;;1.33;;
51288;SDS011;37372;52.294;5.152;2024-02-23T13:28:00;7.90;;;1.40;;
51288;SDS011;37372;52.294;5.152;2024-02-23T13:30:29;5.07;;;1.30;;
51288;SDS011;37372;52.294;5.152;2024-02-23T13:32:55;4.77;;;1.50;;
51288;SDS011;37372;52.294;5.152;2024-02-23T13:35:20;10.53;;;2.10;;
51288;SDS011;37372;52.294;5.152;2024-02-23T13:37:45;5.40;;;1.50;;
51288;SDS011;37372;52.294;5.152;2024-02-23T13:40:11;6.63;;;1.93;;
51288;SDS011;37372;52.294;5.152;2024-02-23T13:42:37;5.53;;;2.10;;
51288;SDS011;37372;52.294;5.152;2024-02-23T13:45:05;5.97;;;2.55;;
51288;SDS011;37372;52.294;5.152;2024-02-23T13:47:31;5.47;;;2.17;;
51288;SDS011;37372;52.294;5.152;2024-02-23T13:49:57;5.28;;;1.40;;
51288;SDS011;37372;52.294;5.152;2024-02-23T13:52:23;4.18;;;1.83;;
51288;SDS011;37372;52.294;5.152;2024-02-23T13:54:49;6.00;;;1.65;;
51288;SDS011;37372;52.294;5.152;2024-02-23T13:57:15;6.90;;;1.63;;
51288;SDS011;37372;52.294;5.152;2024-02-23T13:59:41;10.60;;;1.77;;
51288;SDS011;37372;52.294;5.152;2024-02-23T14:02:06;6.32;;;1.45;;
51288;SDS011;37372;52.294;5.152;2024-02-23T14:04:32;4.50;;;1.40;;
51288;SDS011;37372;52.294;5.152;2024-02-23T14:06:57;4.55;;;1.30;;
51288;SDS011;37372;52.294;5.152;2024-02-23T14:09:23;3.60;;;1.40;;
51288;SDS011;37372;52.294;5.152;2024-02-23T14:11:48;2.50;;;1.30;;
51288;SDS011;37372;52.294;5.152;2024-02-23T14:14:15;2.90;;;1.30;;
51288;SDS011;37372;52.294;5.152;2024-02-23T14:16:41;3.80;;;1.48;;
51288;SDS011;37372;52.294;5.152;2024-02-23T14:19:09;8.10;;;1.53;;
51288;SDS011;37372;52.294;5.152;2024-02-23T14:21:34;2.65;;;1.20;;
51288;SDS011;37372;52.294;5.152;2024-02-23T14:24:02;4.80;;;1.40;;
51288;SDS011;37372;52.294;5.152;2024-02-23T14:26:31;3.23;;;1.30;;
51288;SDS011;37372;52.294;5.152;2024-02-23T14:28:56;3.13;;;1.02;;
51288;SDS011;37372;52.294;5.152;2024-02-23T14:31:24;1.80;;;0.80;;
51288;SDS011;37372;52.294;5.152;2024-02-23T14:33:51;3.72;;;1.23;;
51288;SDS011;37372;52.294;5.152;2024-02-23T14:36:17;2.97;;;1.13;;
51288;SDS011;37372;52.294;5.152;2024-02-23T14:38:43;2.35;;;1.08;;
51288;SDS011;37372;52.294;5.152;2024-02-23T14:41:09;2.60;;;1.10;;
51288;SDS011;37372;52.294;5.152;2024-02-23T14:43:35;2.13;;;1.10;;
51288;SDS011;37372;52.294;5.152;2024-02-23T14:46:01;1.08;;;0.80;;